Terminal Aerodrome Forecast
Issued by NWS Jackson, MS

Home | Current Version | Previous Version | Text Only | Print | Product List | Glossary On
Versions: 1 2 3 4 5 6 7 8 9 10 11 12 13 14
000
FTUS44 KMEG 302200 AAB
TAFTUP
TAF AMD
KTUP 302241Z 3023/3118 VRB03KT 3SM RA BR VCTS SCT010 BKN025CB
      TEMPO 3023/3102 3/4SM +RA BKN008
     FM310400 22008KT 5SM SHRA VCTS BKN015CB OVC025CB
     FM311500 23011KT P6SM VCSH BKN025=

USA.gov is the U.S. government's official web portal to all federal, state and local government web resources and services.